Time;durP1;ratioP1;P1;durP2;ratioP2;P2;SDS_P1;SDS_P2;PMS_P1;PMS_P2;Temp;Humidity;BMP_temperature;BMP_pressure;BME280_temperature;BME280_humidity;BME280_pressure;Samples;Min_cycle;Max_cycle;Signal;HPM_P1;HPM_P2
2024/03/23 00:03:17;;;;;;;;;45.75;41.25;;;;;;;;6489939;46;8948;-55
2024/03/23 00:09:18;;;;;;;;;51.75;43.00;;;;;;;;6490665;46;8916;-55
2024/03/23 00:15:20;;;;;;;;;48.75;43.25;;;;;;;;6490071;46;8939;-56
2024/03/23 00:21:21;;;;;;;;;52.00;41.75;;;;;;;;6491074;39;8878;-57
2024/03/23 00:27:25;;;;;;;;;44.50;40.25;;;;;;;;6490615;39;8881;-57
2024/03/23 00:33:28;;;;;;;;;43.75;38.75;;;;;;;;6489942;39;8854;-56
2024/03/23 00:39:29;;;;;;;;;56.75;45.25;;;;;;;;6489959;39;9075;-55
2024/03/23 00:45:32;;;;;;;;;49.25;43.25;;;;;;;;6489663;46;8894;-58
2024/03/23 00:51:36;;;;;;;;;43.00;40.00;;;;;;;;6490692;39;8880;-56
2024/03/23 00:57:37;;;;;;;;;46.50;41.50;;;;;;;;6491405;39;9020;-55
2024/03/23 01:03:38;;;;;;;;;47.50;41.25;;;;;;;;6490087;46;8936;-55
2024/03/23 01:09:39;;;;;;;;;25.00;17.75;;;;;;;;6490416;31;9256;-57
2024/03/23 01:15:51;;;;;;;;;59.25;44.25;;;;;;;;6489938;47;8940;-57
2024/03/23 01:21:55;;;;;;;;;53.00;44.50;;;;;;;;6490012;47;8927;-56
2024/03/23 01:27:56;;;;;;;;;47.75;42.00;;;;;;;;6490125;39;8924;-57
2024/03/23 01:33:59;;;;;;;;;53.25;44.50;;;;;;;;6489697;39;8878;-56
2024/03/23 01:40:04;;;;;;;;;58.75;43.00;;;;;;;;6490070;39;9611;-56
2024/03/23 01:46:09;;;;;;;;;44.50;41.25;;;;;;;;6490128;39;9564;-57
2024/03/23 01:52:12;;;;;;;;;56.00;44.00;;;;;;;;6491024;39;9489;-56
2024/03/23 01:58:15;;;;;;;;;47.75;43.00;;;;;;;;6490973;39;9522;-56
2024/03/23 02:04:15;;;;;;;;;44.75;42.00;;;;;;;;6491660;39;8949;-57
2024/03/23 02:10:18;;;;;;;;;47.00;40.75;;;;;;;;6491949;39;8842;-53
2024/03/23 02:16:20;;;;;;;;;45.50;37.50;;;;;;;;6490613;39;9583;-56
2024/03/23 02:22:25;;;;;;;;;42.25;37.50;;;;;;;;6491501;46;8921;-57
2024/03/23 02:28:26;;;;;;;;;48.25;39.50;;;;;;;;4409733;36;20001687;-55
2024/03/23 02:34:29;;;;;;;;;44.75;40.25;;;;;;;;6490984;39;8967;-53
2024/03/23 02:40:34;;;;;;;;;44.50;39.75;;;;;;;;6491067;46;8861;-57
2024/03/23 02:46:36;;;;;;;;;35.25;33.00;;;;;;;;6490744;46;8843;-55
2024/03/23 02:52:39;;;;;;;;;38.00;33.75;;;;;;;;6490984;39;8893;-55
2024/03/23 02:58:44;;;;;;;;;40.75;36.50;;;;;;;;6491490;39;9029;-57
2024/03/23 03:04:46;;;;;;;;;43.25;39.50;;;;;;;;6491570;39;8964;-56
2024/03/23 03:10:47;;;;;;;;;36.50;33.25;;;;;;;;6491566;39;8994;-56
2024/03/23 03:16:49;;;;;;;;;40.75;38.25;;;;;;;;6491281;39;9571;-56
2024/03/23 03:22:53;;;;;;;;;42.75;37.75;;;;;;;;6490207;46;9060;-56
2024/03/23 03:28:56;;;;;;;;;33.50;33.50;;;;;;;;6490062;39;8893;-58
2024/03/23 03:35:00;;;;;;;;;37.00;32.75;;;;;;;;6491472;39;8910;-55
2024/03/23 03:41:03;;;;;;;;;33.50;33.25;;;;;;;;6490205;46;8939;-55
2024/03/23 03:47:09;;;;;;;;;35.00;29.75;;;;;;;;6490570;39;8843;-56
2024/03/23 03:53:12;;;;;;;;;39.50;34.25;;;;;;;;6491462;31;8957;-56
2024/03/23 03:59:15;;;;;;;;;40.50;37.75;;;;;;;;6490829;39;9021;-57
2024/03/23 04:05:19;;;;;;;;;43.75;34.00;;;;;;;;6490675;39;9012;-57
2024/03/23 04:11:21;;;;;;;;;39.50;37.25;;;;;;;;6490701;39;8974;-57
2024/03/23 04:17:22;;;;;;;;;41.75;37.50;;;;;;;;6491062;39;8877;-57
2024/03/23 04:23:24;;;;;;;;;36.00;30.75;;;;;;;;6489863;39;8934;-54
2024/03/23 04:29:26;;;;;;;;;46.25;38.50;;;;;;;;6489859;46;8892;-57
2024/03/23 04:35:30;;;;;;;;;44.75;39.50;;;;;;;;6490066;39;8955;-58
2024/03/23 04:41:33;;;;;;;;;44.75;39.25;;;;;;;;6490772;39;8830;-57
2024/03/23 04:47:37;;;;;;;;;46.00;39.25;;;;;;;;6490226;39;8954;-58
2024/03/23 04:53:42;;;;;;;;;43.25;38.25;;;;;;;;6490281;46;8889;-59
2024/03/23 04:59:44;;;;;;;;;29.25;24.50;;;;;;;;6490453;31;9006;-57
2024/03/23 05:05:50;;;;;;;;;39.50;38.50;;;;;;;;6490217;31;8987;-54
2024/03/23 05:11:56;;;;;;;;;47.25;42.00;;;;;;;;6489374;46;8989;-57
2024/03/23 05:18:01;;;;;;;;;47.75;39.75;;;;;;;;6489884;39;9016;-56
2024/03/23 05:24:05;;;;;;;;;36.50;36.00;;;;;;;;6490722;39;8895;-60
2024/03/23 05:30:10;;;;;;;;;44.00;37.25;;;;;;;;6490485;39;8917;-57
2024/03/23 05:36:12;;;;;;;;;54.00;43.25;;;;;;;;6491480;31;9475;-57
2024/03/23 05:42:14;;;;;;;;;41.75;39.50;;;;;;;;6491650;39;8884;-57
2024/03/23 05:48:18;;;;;;;;;41.25;37.25;;;;;;;;6492625;39;8945;-57
2024/03/23 05:54:20;;;;;;;;;41.50;39.00;;;;;;;;6492003;46;9018;-58
2024/03/23 06:00:26;;;;;;;;;38.75;35.50;;;;;;;;6491528;46;8942;-58
2024/03/23 06:06:30;;;;;;;;;39.00;36.75;;;;;;;;6491651;39;9496;-58
2024/03/23 06:12:32;;;;;;;;;41.25;38.00;;;;;;;;6491965;46;8871;-59
2024/03/23 06:18:36;;;;;;;;;37.00;35.75;;;;;;;;6491176;39;8861;-57
2024/03/23 06:24:38;;;;;;;;;42.00;35.75;;;;;;;;6491241;46;9033;-57
2024/03/23 06:30:41;;;;;;;;;38.25;36.00;;;;;;;;6490824;46;8995;-57
2024/03/23 06:36:44;;;;;;;;;42.00;38.00;;;;;;;;6490592;46;8989;-58
2024/03/23 06:42:45;;;;;;;;;39.50;34.75;;;;;;;;6494485;36;8961;-57
2024/03/23 06:48:46;;;;;;;;;40.25;36.50;;;;;;;;6491542;39;8871;-57
2024/03/23 06:54:48;;;;;;;;;38.25;34.25;;;;;;;;6491082;46;8978;-58
2024/03/23 07:00:52;;;;;;;;;36.25;35.50;;;;;;;;6491800;39;8945;-56
2024/03/23 07:06:53;;;;;;;;;34.00;30.50;;;;;;;;6491104;46;9155;-59
2024/03/23 07:12:54;;;;;;;;;32.75;30.50;;;;;;;;6491099;39;8995;-60
2024/03/23 07:18:55;;;;;;;;;46.25;33.75;;;;;;;;6490836;46;8908;-57
2024/03/23 07:25:01;;;;;;;;;34.25;30.50;;;;;;;;6490535;46;8888;-57
2024/03/23 07:31:16;;;;;;;;;38.00;33.67;;;;;;;;6490460;46;8960;-57
2024/03/23 07:37:19;;;;;;;;;38.00;29.25;;;;;;;;6490603;39;9546;-56
2024/03/23 07:43:20;;;;;;;;;31.50;30.75;;;;;;;;6491108;39;8864;-58
2024/03/23 07:49:21;;;;;;;;;26.75;26.75;;;;;;;;6490625;39;9624;-58
2024/03/23 07:55:23;;;;;;;;;31.25;27.25;;;;;;;;6490534;39;8967;-57
2024/03/23 08:01:24;;;;;;;;;29.00;27.25;;;;;;;;6491014;39;9016;-57
2024/03/23 08:07:25;;;;;;;;;28.50;23.75;;;;;;;;6490624;31;9047;-59
2024/03/23 08:13:28;;;;;;;;;26.25;24.00;;;;;;;;6490993;39;8904;-57
2024/03/23 08:19:30;;;;;;;;;31.75;28.50;;;;;;;;6489825;46;8940;-57
2024/03/23 08:25:33;;;;;;;;;25.00;23.00;;;;;;;;6491475;31;8846;-57
2024/03/23 08:31:34;;;;;;;;;30.00;27.75;;;;;;;;6491094;39;8932;-57
2024/03/23 08:37:37;;;;;;;;;31.00;27.75;;;;;;;;6490349;39;8867;-58
2024/03/23 08:43:42;;;;;;;;;25.25;23.75;;;;;;;;6490276;31;9023;-57
2024/03/23 08:49:44;;;;;;;;;28.33;24.00;;;;;;;;6490227;39;8960;-59
2024/03/23 08:55:54;;;;;;;;;28.33;25.67;;;;;;;;6490165;46;9010;-57
2024/03/23 09:01:57;;;;;;;;;32.00;25.33;;;;;;;;6490071;46;9038;-59
2024/03/23 09:08:00;;;;;;;;;24.33;23.00;;;;;;;;6489680;46;8896;-57
2024/03/23 09:14:03;;;;;;;;;23.67;22.00;;;;;;;;6490747;31;8867;-58
2024/03/23 09:20:05;;;;;;;;;26.67;22.33;;;;;;;;6489971;39;8931;-56
2024/03/23 09:26:10;;;;;;;;;19.67;19.33;;;;;;;;6490777;31;8917;-58
2024/03/23 09:32:12;;;;;;;;;20.67;17.00;;;;;;;;6490548;39;8973;-58
2024/03/23 09:38:13;;;;;;;;;15.67;11.33;;;;;;;;6489838;39;9630;-58
2024/03/23 09:44:16;;;;;;;;;13.67;12.00;;;;;;;;6490194;39;8876;-57
2024/03/23 09:50:17;;;;;;;;;13.33;13.00;;;;;;;;6490196;47;8883;-56
2024/03/23 09:56:21;;;;;;;;;17.00;15.67;;;;;;;;6489973;39;9066;-57
2024/03/23 10:02:23;;;;;;;;;13.67;13.33;;;;;;;;6489698;39;8902;-58
2024/03/23 10:08:30;;;;;;;;;18.33;17.33;;;;;;;;6490359;31;8908;-57
2024/03/23 10:14:32;;;;;;;;;13.00;12.00;;;;;;;;6489801;39;8847;-59
2024/03/23 10:20:36;;;;;;;;;18.33;14.33;;;;;;;;6491025;39;9511;-57
2024/03/23 10:26:38;;;;;;;;;12.33;12.33;;;;;;;;6491678;46;8871;-59
2024/03/23 10:32:40;;;;;;;;;13.00;11.33;;;;;;;;6492448;31;8876;-57
2024/03/23 10:38:49;;;;;;;;;18.50;16.50;;;;;;;;6491339;46;8911;-57
2024/03/23 10:44:56;;;;;;;;;11.00;11.00;;;;;;;;6491542;31;8981;-56
2024/03/23 10:50:57;;;;;;;;;8.67;8.67;;;;;;;;6491766;39;9584;-58
2024/03/23 10:57:23;;;;;;;;;13.33;12.67;;;;;;;;6490776;39;9018;-58
2024/03/23 11:03:38;;;;;;;;;13.00;10.67;;;;;;;;6491420;39;8990;-59
2024/03/23 11:09:44;;;;;;;;;10.33;10.33;;;;;;;;6491002;46;8916;-58
2024/03/23 11:15:48;;;;;;;;;12.00;11.00;;;;;;;;6491902;39;9553;-57
2024/03/23 11:21:54;;;;;;;;;12.00;11.33;;;;;;;;6491865;31;9048;-59
2024/03/23 11:27:58;;;;;;;;;9.33;7.67;;;;;;;;6491400;31;8888;-58
2024/03/23 11:34:05;;;;;;;;;12.00;11.33;;;;;;;;6491877;39;8877;-59
2024/03/23 11:40:18;;;;;;;;;6.67;6.67;;;;;;;;6491519;46;8892;-57
2024/03/23 11:46:24;;;;;;;;;12.33;10.67;;;;;;;;6490949;46;8853;-58
2024/03/23 11:52:26;;;;;;;;;10.00;8.67;;;;;;;;6489803;46;8907;-59
2024/03/23 11:58:28;;;;;;;;;6.33;6.33;;;;;;;;6491996;31;8971;-59
2024/03/23 12:04:29;;;;;;;;;11.33;10.00;;;;;;;;6490159;39;8939;-58
2024/03/23 12:10:31;;;;;;;;;11.67;11.67;;;;;;;;6491425;31;8933;-57
2024/03/23 12:16:35;;;;;;;;;17.67;14.67;;;;;;;;6491029;39;8916;-58
2024/03/23 12:22:37;;;;;;;;;11.67;11.67;;;;;;;;6490713;39;8996;-58
2024/03/23 12:28:39;;;;;;;;;17.00;17.00;;;;;;;;6490456;46;9015;-57
2024/03/23 12:34:41;;;;;;;;;13.67;13.67;;;;;;;;6490026;46;8865;-58
2024/03/23 12:40:48;;;;;;;;;15.67;14.00;;;;;;;;6490583;46;8892;-57
2024/03/23 12:46:50;;;;;;;;;13.00;13.00;;;;;;;;6490055;39;8881;-59
2024/03/23 12:52:51;;;;;;;;;15.33;14.67;;;;;;;;6490040;46;8946;-59
2024/03/23 12:58:54;;;;;;;;;16.67;15.00;;;;;;;;6490370;31;9616;-58
2024/03/23 13:04:56;;;;;;;;;16.67;16.67;;;;;;;;6489903;31;9056;-57
2024/03/23 13:10:57;;;;;;;;;17.33;15.33;;;;;;;;6491063;39;8941;-58
2024/03/23 13:16:59;;;;;;;;;13.67;12.67;;;;;;;;6490555;39;8972;-59
2024/03/23 13:23:01;;;;;;;;;17.00;15.33;;;;;;;;6489423;39;9021;-58
2024/03/23 13:29:04;;;;;;;;;13.67;12.33;;;;;;;;6490949;39;8926;-59
2024/03/23 13:35:06;;;;;;;;;19.00;17.67;;;;;;;;6489209;47;9029;-57
2024/03/23 13:41:12;;;;;;;;;23.00;22.67;;;;;;;;6489834;47;9036;-58
2024/03/23 13:47:13;;;;;;;;;19.00;18.33;;;;;;;;6490842;47;8886;-57
2024/03/23 13:53:14;;;;;;;;;18.00;17.00;;;;;;;;6490034;46;8897;-57
2024/03/23 13:59:15;;;;;;;;;16.67;16.67;;;;;;;;6492562;31;9664;-59
2024/03/23 14:05:16;;;;;;;;;18.67;14.67;;;;;;;;6495433;31;8884;-58
2024/03/23 14:11:19;;;;;;;;;13.00;13.00;;;;;;;;6492163;31;8857;-59
2024/03/23 14:17:21;;;;;;;;;19.00;16.67;;;;;;;;6491844;39;8912;-57
2024/03/23 14:23:21;;;;;;;;;14.67;14.67;;;;;;;;6491453;46;8915;-58
2024/03/23 14:29:25;;;;;;;;;17.33;17.33;;;;;;;;6492064;31;9028;-58
2024/03/23 14:35:29;;;;;;;;;15.33;13.67;;;;;;;;6491084;46;9012;-58
2024/03/23 14:41:30;;;;;;;;;17.00;17.00;;;;;;;;6490693;39;8839;-58
2024/03/23 14:47:33;;;;;;;;;14.33;13.33;;;;;;;;6492053;39;8909;-58
2024/03/23 14:53:36;;;;;;;;;15.33;14.33;;;;;;;;6491211;39;8986;-57
2024/03/23 14:59:43;;;;;;;;;10.33;10.00;;;;;;;;6491127;46;8961;-58
2024/03/23 15:05:57;;;;;;;;;19.00;17.67;;;;;;;;6490830;39;8917;-59
2024/03/23 15:12:01;;;;;;;;;21.00;21.00;;;;;;;;6491378;39;8829;-59
2024/03/23 15:18:02;;;;;;;;;21.67;20.00;;;;;;;;6491464;39;9045;-58
2024/03/23 15:24:06;;;;;;;;;19.00;18.00;;;;;;;;6490768;31;8849;-59
2024/03/23 15:30:10;;;;;;;;;22.00;20.67;;;;;;;;6491113;46;8978;-58
2024/03/23 15:36:15;;;;;;;;;15.67;11.67;;;;;;;;6490395;39;8897;-59
2024/03/23 15:42:17;;;;;;;;;17.00;15.67;;;;;;;;6491121;31;8979;-60
2024/03/23 15:48:18;;;;;;;;;16.67;16.67;;;;;;;;6491649;39;9489;-58
2024/03/23 15:54:22;;;;;;;;;19.33;16.33;;;;;;;;6490661;46;8878;-60
2024/03/23 16:00:23;;;;;;;;;19.67;19.33;;;;;;;;6490956;46;8992;-57
2024/03/23 16:06:25;;;;;;;;;21.33;18.67;;;;;;;;6490511;31;8952;-57
2024/03/23 16:12:26;;;;;;;;;20.00;20.00;;;;;;;;6490971;39;8865;-59
2024/03/23 16:18:27;;;;;;;;;25.00;21.33;;;;;;;;6490974;39;8882;-57
2024/03/23 16:24:35;;;;;;;;;41.33;37.00;;;;;;;;6490496;39;8872;-57
2024/03/23 16:30:36;;;;;;;;;42.33;38.00;;;;;;;;6490285;39;8949;-57
2024/03/23 16:36:39;;;;;;;;;25.33;24.67;;;;;;;;6489736;46;8913;-57
2024/03/23 16:42:41;;;;;;;;;36.25;32.50;;;;;;;;6491247;39;8978;-57
2024/03/23 16:48:46;;;;;;;;;33.33;32.67;;;;;;;;6490675;39;8981;-59
2024/03/23 16:54:49;;;;;;;;;30.33;29.00;;;;;;;;6490591;46;8993;-58
2024/03/23 17:00:57;;;;;;;;;37.50;33.00;;;;;;;;6490060;39;8973;-58
2024/03/23 17:06:59;;;;;;;;;52.25;42.50;;;;;;;;6489658;46;9086;-59
2024/03/23 17:13:03;;;;;;;;;45.00;38.00;;;;;;;;6489956;46;8857;-59
2024/03/23 17:19:08;;;;;;;;;43.00;36.75;;;;;;;;6490603;39;8960;-57
2024/03/23 17:25:13;;;;;;;;;39.00;35.25;;;;;;;;6489857;47;8912;-58
2024/03/23 17:31:21;;;;;;;;;36.50;35.00;;;;;;;;6491510;39;8913;-59
2024/03/23 17:37:22;;;;;;;;;46.50;37.50;;;;;;;;6492468;39;8924;-59
2024/03/23 17:43:28;;;;;;;;;43.75;38.00;;;;;;;;6492083;46;8873;-59
2024/03/23 17:49:29;;;;;;;;;48.75;41.50;;;;;;;;6491404;46;8951;-58
2024/03/23 17:55:31;;;;;;;;;50.00;42.00;;;;;;;;6492273;31;8992;-59
2024/03/23 18:01:33;;;;;;;;;44.75;38.75;;;;;;;;6491700;39;8896;-56
2024/03/23 18:07:36;;;;;;;;;43.50;39.00;;;;;;;;6491917;39;8900;-58
2024/03/23 18:13:38;;;;;;;;;40.50;37.50;;;;;;;;6491896;46;8845;-58
2024/03/23 18:19:44;;;;;;;;;42.00;37.25;;;;;;;;6491621;39;8855;-59
2024/03/23 18:25:58;;;;;;;;;47.33;40.00;;;;;;;;6490495;39;8865;-57
2024/03/23 18:32:00;;;;;;;;;57.75;46.25;;;;;;;;6491352;46;8895;-57
2024/03/23 18:38:01;;;;;;;;;57.00;46.00;;;;;;;;6491230;31;8933;-58
2024/03/23 18:44:04;;;;;;;;;65.25;52.25;;;;;;;;6491782;46;8878;-57
2024/03/23 18:50:15;;;;;;;;;56.50;46.50;;;;;;;;6491507;39;8865;-62
2024/03/23 18:56:18;;;;;;;;;56.50;45.00;;;;;;;;6491899;39;8953;-58
2024/03/23 19:02:19;;;;;;;;;57.00;46.50;;;;;;;;6491448;31;9048;-58
2024/03/23 19:08:21;;;;;;;;;60.50;49.50;;;;;;;;6491266;39;8930;-58
2024/03/23 19:14:23;;;;;;;;;56.25;47.25;;;;;;;;6491448;46;8932;-56
2024/03/23 19:20:24;;;;;;;;;64.00;51.75;;;;;;;;6490610;46;8917;-58
2024/03/23 19:26:26;;;;;;;;;69.25;54.25;;;;;;;;6491999;39;8881;-58
2024/03/23 19:32:29;;;;;;;;;65.00;51.50;;;;;;;;6491039;46;8887;-57
2024/03/23 19:38:32;;;;;;;;;60.00;50.50;;;;;;;;6490760;46;8869;-58
2024/03/23 19:44:34;;;;;;;;;63.00;51.75;;;;;;;;6490698;46;8870;-58
2024/03/23 19:50:39;;;;;;;;;65.25;53.50;;;;;;;;6490777;39;8841;-57
2024/03/23 19:56:44;;;;;;;;;66.75;54.75;;;;;;;;6491342;39;8906;-56
2024/03/23 20:02:46;;;;;;;;;69.75;55.50;;;;;;;;6490832;39;8954;-58
2024/03/23 20:08:47;;;;;;;;;65.00;51.00;;;;;;;;6490569;46;8964;-56
2024/03/23 20:14:56;;;;;;;;;61.75;50.50;;;;;;;;6490157;31;8895;-57
2024/03/23 20:21:01;;;;;;;;;61.00;49.50;;;;;;;;6489610;39;8971;-57
2024/03/23 20:27:08;;;;;;;;;60.75;47.00;;;;;;;;6490951;39;10273;-57
2024/03/23 20:33:09;;;;;;;;;59.75;48.25;;;;;;;;6490721;39;8964;-57
2024/03/23 20:39:11;;;;;;;;;64.25;51.25;;;;;;;;6490557;39;9034;-57
2024/03/23 20:45:15;;;;;;;;;64.00;52.00;;;;;;;;6490845;39;8874;-57
2024/03/23 20:51:17;;;;;;;;;63.00;52.50;;;;;;;;6489608;31;8921;-55
2024/03/23 20:57:18;;;;;;;;;66.50;52.00;;;;;;;;6489663;39;8958;-56
2024/03/23 21:03:19;;;;;;;;;70.50;53.75;;;;;;;;6489709;39;9048;-54
2024/03/23 21:09:22;;;;;;;;;63.25;49.50;;;;;;;;6489541;39;8914;-58
2024/03/23 21:15:24;;;;;;;;;60.00;48.00;;;;;;;;6489308;47;8944;-58
2024/03/23 21:21:27;;;;;;;;;60.00;48.50;;;;;;;;6490527;39;8910;-59
2024/03/23 21:27:28;;;;;;;;;57.50;46.25;;;;;;;;6490248;31;8882;-60
2024/03/23 21:33:31;;;;;;;;;58.50;47.25;;;;;;;;6490007;36;198281;-61
2024/03/23 21:39:33;;;;;;;;;57.50;47.00;;;;;;;;6489969;31;8962;-59
2024/03/23 21:45:34;;;;;;;;;50.00;41.67;;;;;;;;6489995;46;8909;-56
2024/03/23 21:51:37;;;;;;;;;43.50;40.25;;;;;;;;6489328;39;8920;-58
2024/03/23 21:57:40;;;;;;;;;48.00;41.00;;;;;;;;6489950;39;9542;-58
2024/03/23 22:03:41;;;;;;;;;45.25;40.75;;;;;;;;6490181;39;8950;-56
2024/03/23 22:09:42;;;;;;;;;49.25;40.50;;;;;;;;6489931;31;8866;-57
2024/03/23 22:15:45;;;;;;;;;45.50;40.25;;;;;;;;6490522;39;8866;-57
2024/03/23 22:21:46;;;;;;;;;44.00;38.50;;;;;;;;6491201;46;8826;-57
2024/03/23 22:27:49;;;;;;;;;43.75;37.25;;;;;;;;6491652;31;8882;-58
2024/03/23 22:33:50;;;;;;;;;38.25;34.50;;;;;;;;6491893;39;8878;-58
2024/03/23 22:39:53;;;;;;;;;44.00;37.25;;;;;;;;6492147;39;8890;-58
2024/03/23 22:46:05;;;;;;;;;36.50;34.50;;;;;;;;6491417;46;8874;-55
2024/03/23 22:52:07;;;;;;;;;36.50;35.50;;;;;;;;6490700;39;9078;-55
2024/03/23 22:58:09;;;;;;;;;30.75;30.00;;;;;;;;6490239;39;8942;-58
2024/03/23 23:04:11;;;;;;;;;35.75;31.50;;;;;;;;6490550;31;8965;-58
2024/03/23 23:10:13;;;;;;;;;31.25;29.00;;;;;;;;6491208;39;8858;-55
2024/03/23 23:16:15;;;;;;;;;33.75;31.25;;;;;;;;6491183;39;9521;-58
2024/03/23 23:22:17;;;;;;;;;29.75;26.25;;;;;;;;6491546;39;9506;-56
2024/03/23 23:28:19;;;;;;;;;6.50;4.50;;;;;;;;6490684;46;9012;-58
2024/03/23 23:34:21;;;;;;;;;26.75;24.50;;;;;;;;6491127;46;8862;-57
2024/03/23 23:40:26;;;;;;;;;28.00;23.75;;;;;;;;6490388;46;8965;-57
2024/03/23 23:46:28;;;;;;;;;22.00;20.50;;;;;;;;6473353;36;5001974;-57
2024/03/23 23:52:29;;;;;;;;;27.00;24.75;;;;;;;;6491126;39;8913;-57
2024/03/23 23:58:31;;;;;;;;;34.50;33.00;;;;;;;;6491328;39;8964;-58
